Time;durP1;ratioP1;P1;durP2;ratioP2;P2;SDS_P1;SDS_P2;PMS_P1;PMS_P2;Temp;Humidity;BMP_temperature;BMP_pressure;BME280_temperature;BME280_humidity;BME280_pressure;Samples;Min_cycle;Max_cycle;Signal;HPM_P1;HPM_P2
2021/06/22 00:00:23;;;;;;;;;2.00;2.00;;;;;22.71;46.97;100453.00;5061690;27;45264;-79
2021/06/22 00:02:49;;;;;;;;;2.00;2.00;;;;;22.69;47.20;100457.72;5067114;27;45435;-80
2021/06/22 00:05:17;;;;;;;;;5.00;3.25;;;;;22.66;47.31;100456.28;5072425;28;45451;-79
2021/06/22 00:07:43;;;;;;;;;5.00;4.00;;;;;22.64;47.43;100454.78;5075886;28;45457;-80
2021/06/22 00:10:10;;;;;;;;;5.00;4.50;;;;;22.67;47.57;100465.97;5074469;28;45162;-80
2021/06/22 00:12:35;;;;;;;;;4.00;3.00;;;;;22.67;47.59;100463.28;5068309;27;45260;-80
2021/06/22 00:15:03;;;;;;;;;1.00;1.00;;;;;22.67;47.78;100465.19;5072987;28;45374;-79
2021/06/22 00:17:28;;;;;;;;;2.50;1.25;;;;;22.68;47.73;100464.13;5069484;27;45342;-79
2021/06/22 00:19:54;;;;;;;;;1.25;1.25;;;;;22.72;47.36;100462.75;5072984;28;46050;-80
2021/06/22 00:22:19;;;;;;;;;3.50;2.00;;;;;22.75;47.93;100463.25;5063907;27;45275;-80
2021/06/22 00:24:45;;;;;;;;;1.00;1.00;;;;;22.81;47.09;100456.25;5067595;28;45444;-80
2021/06/22 00:27:12;;;;;;;;;7.00;4.00;;;;;22.85;47.58;100462.94;5076121;28;45373;-80
2021/06/22 00:29:38;;;;;;;;;2.25;2.00;;;;;22.92;47.39;100471.09;5067856;27;45421;-80
2021/06/22 00:32:04;;;;;;;;;3.00;3.00;;;;;22.94;47.20;100466.34;5068675;28;46123;-80
2021/06/22 00:34:29;;;;;;;;;4.00;2.25;;;;;22.94;47.59;100456.41;5074265;27;45488;-80
2021/06/22 00:36:54;;;;;;;;;2.50;2.00;;;;;22.99;47.39;100464.75;5077804;28;45420;-80
2021/06/22 00:39:20;;;;;;;;;1.75;1.75;;;;;23.00;47.57;100465.59;5071551;28;45447;-80
2021/06/22 00:41:45;;;;;;;;;3.50;2.00;;;;;23.01;47.51;100462.69;5076810;28;45762;-80
2021/06/22 00:44:11;;;;;;;;;3.25;3.25;;;;;23.03;47.36;100465.22;5078080;27;46640;-80
2021/06/22 00:46:37;;;;;;;;;4.25;2.00;;;;;23.02;47.57;100474.31;5075325;27;45542;-80
2021/06/22 00:49:04;;;;;;;;;2.75;2.00;;;;;23.01;47.86;100478.88;5073641;27;45388;-80
2021/06/22 00:51:30;;;;;;;;;3.00;3.00;;;;;23.02;48.16;100475.16;5072840;28;45511;-80
2021/06/22 00:53:56;;;;;;;;;1.25;1.00;;;;;23.03;48.09;100470.59;5075914;28;46195;-80
2021/06/22 00:56:23;;;;;;;;;4.50;2.00;;;;;23.01;48.19;100461.88;5069391;27;45535;-80
2021/06/22 00:58:49;;;;;;;;;2.50;2.50;;;;;22.99;48.16;100467.44;5073455;27;45207;-80
2021/06/22 01:01:14;;;;;;;;;1.75;1.75;;;;;22.96;48.63;100461.59;5081552;28;45607;-80
2021/06/22 01:03:40;;;;;;;;;2.75;2.75;;;;;22.93;48.70;100467.38;5074882;28;45383;-80
2021/06/22 01:06:06;;;;;;;;;2.00;2.00;;;;;22.93;48.75;100473.59;5071887;28;45334;-80
2021/06/22 01:08:33;;;;;;;;;2.75;1.25;;;;;22.93;49.08;100472.75;5075474;28;45537;-80
2021/06/22 01:10:58;;;;;;;;;3.00;3.00;;;;;22.93;48.75;100470.06;5078429;27;46260;-79
2021/06/22 01:13:24;;;;;;;;;2.00;2.00;;;;;22.90;48.94;100462.34;5077148;28;45705;-80
2021/06/22 01:15:49;;;;;;;;;3.75;2.25;;;;;22.86;48.88;100466.44;5074653;28;45461;-80
2021/06/22 01:18:16;;;;;;;;;3.50;2.00;;;;;22.86;48.90;100459.19;5070915;28;45520;-80
2021/06/22 01:20:42;;;;;;;;;3.75;3.25;;;;;22.86;49.05;100464.59;5079874;28;46327;-80
2021/06/22 01:23:08;;;;;;;;;3.00;2.00;;;;;22.84;49.27;100463.13;5080272;27;45409;-79
2021/06/22 01:25:35;;;;;;;;;5.00;3.00;;;;;22.80;49.42;100464.53;5076325;28;45369;-80
2021/06/22 01:28:00;;;;;;;;;2.25;2.25;;;;;22.75;50.04;100462.41;5077199;28;45532;-79
2021/06/22 01:30:28;;;;;;;;;4.00;4.00;;;;;22.71;49.96;100461.91;5076802;27;45579;-79
2021/06/22 01:32:56;;;;;;;;;2.00;2.00;;;;;22.70;50.18;100457.53;5072858;27;45624;-80
2021/06/22 01:35:23;;;;;;;;;5.00;2.00;;;;;22.68;49.92;100458.75;5079678;28;45241;-79
2021/06/22 01:37:52;;;;;;;;;3.50;3.50;;;;;22.63;50.28;100445.88;5071241;27;45420;-79
2021/06/22 01:40:17;;;;;;;;;3.25;3.25;;;;;22.63;50.56;100442.34;5080251;28;46319;-79
2021/06/22 01:42:43;;;;;;;;;3.00;3.00;;;;;22.61;50.46;100439.00;5072716;27;46203;-79
2021/06/22 01:45:08;;;;;;;;;1.00;1.00;;;;;22.61;50.92;100437.16;5078577;28;45425;-79
2021/06/22 01:47:34;;;;;;;;;4.50;2.75;;;;;22.62;50.70;100444.19;5077403;27;45367;-79
2021/06/22 01:50:01;;;;;;;;;3.00;3.00;;;;;22.61;50.77;100441.69;5068727;28;45897;-79
2021/06/22 01:52:27;;;;;;;;;4.00;3.00;;;;;22.62;51.01;100440.66;5091611;27;45500;-79
2021/06/22 01:54:54;;;;;;;;;5.50;3.75;;;;;22.58;51.17;100450.16;5067926;28;45552;-80
2021/06/22 01:57:22;;;;;;;;;3.00;3.00;;;;;22.58;51.00;100448.28;5073891;28;46223;-79
2021/06/22 01:59:48;;;;;;;;;5.50;4.00;;;;;22.57;51.14;100446.63;5073365;28;48168;-79
2021/06/22 02:02:14;;;;;;;;;4.75;4.00;;;;;22.59;51.20;100441.03;5075303;28;45820;-79
2021/06/22 02:04:39;;;;;;;;;5.00;4.00;;;;;22.57;51.93;100443.94;5074577;27;45390;-79
2021/06/22 02:07:04;;;;;;;;;5.75;4.00;;;;;22.57;51.49;100445.81;5076132;28;45510;-79
2021/06/22 02:09:30;;;;;;;;;6.00;4.00;;;;;22.52;51.43;100442.81;5081333;27;45536;-79
2021/06/22 02:11:55;;;;;;;;;4.00;3.75;;;;;22.49;51.60;100441.34;5077938;27;45733;-79
2021/06/22 02:14:21;;;;;;;;;2.25;2.25;;;;;22.48;51.64;100446.94;5075604;27;45554;-78
2021/06/22 02:16:46;;;;;;;;;4.50;4.50;;;;;22.46;51.80;100460.56;5079990;27;45299;-79
2021/06/22 02:19:11;;;;;;;;;7.00;6.00;;;;;22.43;52.05;100465.47;5079012;27;45421;-79
2021/06/22 02:21:37;;;;;;;;;5.50;5.50;;;;;22.38;52.21;100466.06;5084134;27;45405;-79
2021/06/22 02:24:02;;;;;;;;;6.25;5.00;;;;;22.35;52.16;100464.56;5079901;28;45302;-79
2021/06/22 02:26:28;;;;;;;;;7.25;4.50;;;;;22.30;52.76;100460.78;5071346;28;45231;-79
2021/06/22 02:28:53;;;;;;;;;5.25;5.00;;;;;22.27;52.45;100453.91;5078147;28;46928;-79
2021/06/22 02:31:19;;;;;;;;;6.00;5.00;;;;;22.27;52.62;100453.06;5077891;27;45429;-79
2021/06/22 02:33:44;;;;;;;;;6.00;4.25;;;;;22.26;52.63;100449.53;5076044;28;45341;-79
2021/06/22 02:36:10;;;;;;;;;5.75;5.75;;;;;22.28;52.41;100446.66;5073473;28;45529;-79
2021/06/22 02:38:35;;;;;;;;;5.75;5.00;;;;;22.28;52.48;100452.88;5073656;28;46763;-79
2021/06/22 02:41:01;;;;;;;;;5.25;3.50;;;;;22.28;52.81;100454.72;5068545;28;45424;-79
2021/06/22 02:43:26;;;;;;;;;6.00;6.00;;;;;22.23;52.68;100447.22;5075866;28;45411;-80
2021/06/22 02:45:51;;;;;;;;;11.50;9.00;;;;;22.19;52.68;100447.78;5068099;28;45469;-79
2021/06/22 02:48:17;;;;;;;;;7.75;7.00;;;;;22.16;52.84;100448.97;5078153;27;46052;-79
2021/06/22 02:50:42;;;;;;;;;9.00;6.50;;;;;22.16;53.24;100456.22;5073152;27;45490;-79
2021/06/22 02:53:09;;;;;;;;;8.50;7.25;;;;;22.19;53.74;100456.69;5073034;28;46055;-79
2021/06/22 02:55:35;;;;;;;;;7.75;7.75;;;;;22.22;53.42;100455.47;5070503;28;45527;-79
2021/06/22 02:58:01;;;;;;;;;9.00;8.00;;;;;22.22;53.37;100461.66;5072376;27;45444;-79
2021/06/22 03:00:29;;;;;;;;;8.75;7.50;;;;;22.19;53.85;100459.38;5071757;27;45184;-79
2021/06/22 03:02:55;;;;;;;;;11.00;9.00;;;;;22.23;54.06;100468.72;5070308;28;45612;-79
2021/06/22 03:05:21;;;;;;;;;11.25;8.00;;;;;22.21;54.44;100470.78;5072829;27;45460;-79
2021/06/22 03:07:47;;;;;;;;;10.75;8.75;;;;;22.21;54.01;100470.78;5084848;27;46501;-79
2021/06/22 03:10:14;;;;;;;;;9.25;9.25;;;;;22.19;54.89;100478.22;5072726;28;45334;-79
2021/06/22 03:12:40;;;;;;;;;8.75;8.00;;;;;22.17;54.37;100468.63;5076118;27;47810;-79
2021/06/22 03:15:08;;;;;;;;;10.50;9.25;;;;;22.14;55.06;100463.63;5084043;27;45666;-79
2021/06/22 03:17:34;;;;;;;;;10.50;10.25;;;;;22.14;55.00;100461.78;5067160;28;46317;-78
2021/06/22 03:19:59;;;;;;;;;11.00;10.00;;;;;22.16;54.77;100456.22;5072920;28;45390;-79
2021/06/22 03:22:25;;;;;;;;;11.00;10.00;;;;;22.15;54.64;100459.91;5061269;27;45695;-79
2021/06/22 03:24:50;;;;;;;;;8.00;8.00;;;;;22.14;55.06;100458.25;5070805;28;45439;-79
2021/06/22 03:27:16;;;;;;;;;10.25;9.00;;;;;22.10;54.79;100455.09;5091505;27;46028;-79
2021/06/22 03:29:41;;;;;;;;;9.00;9.00;;;;;22.10;55.17;100463.19;5068346;27;45558;-79
2021/06/22 03:32:07;;;;;;;;;11.00;9.75;;;;;22.06;54.44;100451.09;5077802;27;45392;-79
2021/06/22 03:34:33;;;;;;;;;9.75;9.00;;;;;22.08;56.24;100467.06;5075121;27;45388;-79
2021/06/22 03:36:58;;;;;;;;;10.50;9.00;;;;;22.07;55.34;100471.59;5079720;27;45676;-79
2021/06/22 03:39:24;;;;;;;;;11.50;10.25;;;;;22.08;55.48;100473.28;5073432;28;45330;-79
2021/06/22 03:41:49;;;;;;;;;12.25;9.50;;;;;22.08;54.79;100475.13;5076749;27;45409;-79
2021/06/22 03:44:15;;;;;;;;;11.25;9.25;;;;;22.08;55.54;100478.66;5074586;28;45430;-79
2021/06/22 03:46:44;;;;;;;;;11.25;9.00;;;;;22.10;55.45;100478.47;5075833;28;45667;-79
2021/06/22 03:49:09;;;;;;;;;9.00;8.00;;;;;22.11;55.59;100474.78;5063192;28;45628;-79
2021/06/22 03:51:35;;;;;;;;;9.25;9.25;;;;;22.12;55.51;100469.22;5073307;27;45228;-79
2021/06/22 03:54:00;;;;;;;;;9.25;7.50;;;;;22.11;55.72;100464.84;5069755;28;45586;-79
2021/06/22 03:56:26;;;;;;;;;7.75;7.25;;;;;22.14;55.42;100474.38;5066915;27;45402;-80
2021/06/22 03:58:52;;;;;;;;;11.00;7.75;;;;;22.13;55.40;100486.16;5072680;28;45497;-80
2021/06/22 04:01:17;;;;;;;;;7.00;7.00;;;;;22.10;55.29;100476.63;5075211;27;45349;-79
2021/06/22 04:03:43;;;;;;;;;8.75;8.25;;;;;22.10;55.18;100484.69;5069218;27;45396;-80
2021/06/22 04:06:08;;;;;;;;;8.25;7.00;;;;;22.10;54.77;100484.69;5074895;28;46714;-79
2021/06/22 04:08:35;;;;;;;;;8.00;7.00;;;;;22.06;55.08;100488.75;5068977;28;45356;-79
2021/06/22 04:11:01;;;;;;;;;6.25;6.25;;;;;22.04;55.32;100496.16;5069494;28;45529;-80
2021/06/22 04:13:27;;;;;;;;;8.00;7.25;;;;;21.96;55.64;100497.06;5075769;28;45472;-79
2021/06/22 04:15:53;;;;;;;;;10.00;8.25;;;;;21.96;55.85;100501.59;5080029;28;45355;-79
2021/06/22 04:18:21;;;;;;;;;9.25;7.50;;;;;21.94;55.75;100501.78;5080774;27;45345;-79
2021/06/22 04:20:47;;;;;;;;;7.75;6.00;;;;;21.96;55.78;100504.28;5069328;27;45375;-79
2021/06/22 04:23:13;;;;;;;;;7.50;7.25;;;;;21.99;55.81;100504.78;5080682;27;45314;-80
2021/06/22 04:25:39;;;;;;;;;6.25;5.00;;;;;22.06;55.82;100512.13;5070034;28;46457;-80
2021/06/22 04:28:05;;;;;;;;;7.50;5.75;;;;;22.10;55.36;100510.75;5074773;28;45456;-79
2021/06/22 04:30:34;;;;;;;;;7.50;6.25;;;;;22.17;55.40;100517.88;5081189;28;46336;-80
2021/06/22 04:33:00;;;;;;;;;6.75;6.75;;;;;22.17;55.52;100507.13;5085973;28;44839;-79
2021/06/22 04:35:28;;;;;;;;;6.75;6.00;;;;;22.20;55.14;100505.94;5079868;28;46149;-79
2021/06/22 04:37:54;;;;;;;;;6.25;5.25;;;;;22.23;55.28;100510.94;5079953;28;45467;-79
2021/06/22 04:40:20;;;;;;;;;5.00;5.00;;;;;22.23;54.94;100511.75;5070404;27;45534;-79
2021/06/22 04:42:45;;;;;;;;;7.00;6.25;;;;;22.26;54.71;100522.16;5077530;28;45439;-79
2021/06/22 04:45:11;;;;;;;;;6.75;5.50;;;;;22.27;55.06;100515.78;5072591;28;46272;-79
2021/06/22 04:47:37;;;;;;;;;13.50;7.75;;;;;22.30;54.88;100518.09;5081123;28;45384;-79
2021/06/22 04:50:04;;;;;;;;;8.00;8.00;;;;;22.34;54.68;100521.25;5079076;28;45450;-79
2021/06/22 04:52:30;;;;;;;;;9.00;6.25;;;;;22.35;55.00;100512.97;5072615;27;45577;-79
2021/06/22 04:54:55;;;;;;;;;7.25;5.00;;;;;22.41;54.97;100522.16;5077532;27;45534;-79
2021/06/22 04:57:21;;;;;;;;;6.75;6.00;;;;;22.45;54.69;100512.72;5082681;28;46207;-79
2021/06/22 04:59:47;;;;;;;;;8.25;6.25;;;;;22.49;54.49;100515.88;5075914;27;45464;-79
2021/06/22 05:02:12;;;;;;;;;7.00;5.00;;;;;22.51;54.87;100516.50;5077944;27;45868;-80
2021/06/22 05:04:38;;;;;;;;;9.00;7.00;;;;;22.56;54.58;100532.94;5074468;28;46364;-81
2021/06/22 05:07:04;;;;;;;;;10.75;8.00;;;;;22.58;54.66;100523.63;5070238;28;46197;-81
2021/06/22 05:09:29;;;;;;;;;8.75;7.50;;;;;22.60;54.62;100528.84;5089204;27;45588;-79
2021/06/22 05:11:55;;;;;;;;;7.75;7.75;;;;;22.58;54.62;100518.25;5077030;28;45365;-79
2021/06/22 05:14:20;;;;;;;;;8.50;8.00;;;;;22.56;54.84;100527.56;5072103;28;45597;-79
2021/06/22 05:16:48;;;;;;;;;10.25;9.25;;;;;22.52;55.13;100524.41;5075805;27;45457;-79
2021/06/22 05:19:15;;;;;;;;;10.25;9.50;;;;;22.52;55.09;100519.00;5077239;27;45357;-79
2021/06/22 05:21:40;;;;;;;;;9.50;8.25;;;;;22.52;55.36;100510.94;5074364;28;45709;-79
2021/06/22 05:24:06;;;;;;;;;14.00;11.00;;;;;22.56;55.11;100523.00;5074891;27;47484;-80
2021/06/22 05:26:31;;;;;;;;;13.25;10.50;;;;;22.60;55.42;100531.53;5071485;28;49814;-79
2021/06/22 05:28:57;;;;;;;;;10.25;8.25;;;;;22.65;54.99;100532.66;5070472;28;45584;-78
2021/06/22 05:31:22;;;;;;;;;10.50;10.25;;;;;22.70;55.27;100529.38;5074995;28;45487;-84
2021/06/22 05:33:48;;;;;;;;;10.00;9.25;;;;;22.73;55.24;100532.56;5074011;28;48573;-86
2021/06/22 05:36:15;;;;;;;;;11.25;11.00;;;;;22.75;55.01;100527.84;5075987;28;45718;-86
2021/06/22 05:38:56;;;;;;;;;;;;;;;;;;;;;
2021/06/22 05:41:22;;;;;;;;;12.25;10.00;;;;;22.83;55.12;100534.16;5078113;27;73390;-83
2021/06/22 05:43:47;;;;;;;;;10.00;9.00;;;;;22.89;55.27;100534.22;5073307;27;46209;-82
2021/06/22 05:46:13;;;;;;;;;12.00;10.00;;;;;22.92;55.01;100533.84;5073940;28;45679;-83
2021/06/22 05:48:38;;;;;;;;;11.25;8.50;;;;;22.96;55.05;100545.06;5074704;28;45410;-83
2021/06/22 05:51:04;;;;;;;;;14.25;12.50;;;;;22.91;54.86;100548.34;5067631;28;45644;-84
2021/06/22 05:53:29;;;;;;;;;12.50;12.50;;;;;22.89;55.12;100547.69;5090298;27;48458;-84
2021/06/22 05:55:55;;;;;;;;;9.50;9.50;;;;;22.86;54.88;100553.44;5077766;28;45458;-83
2021/06/22 05:58:20;;;;;;;;;13.00;12.50;;;;;22.85;54.75;100538.34;5073706;28;45417;-83
2021/06/22 06:00:46;;;;;;;;;13.00;13.00;;;;;22.88;54.95;100546.03;5080513;27;45405;-86
2021/06/22 06:03:11;;;;;;;;;11.75;11.50;;;;;22.92;54.93;100541.94;5077707;28;45370;-85
2021/06/22 06:05:39;;;;;;;;;13.25;13.25;;;;;22.94;54.90;100544.44;5078590;27;45299;-82
2021/06/22 06:08:38;;;;;;;;;;;;;;;;;;;;;
2021/06/22 06:11:54;;;;;;;;;15.25;14.25;;;;;22.89;55.49;100558.47;5070979;28;72459;-85
2021/06/22 06:14:12;;;;;;;;;14.25;10.75;;;;;22.89;55.38;100565.72;5063174;27;46401;-84
2021/06/22 06:16:37;;;;;;;;;17.75;14.50;;;;;22.83;55.51;100561.91;5075402;27;45396;-84
2021/06/22 06:19:05;;;;;;;;;14.25;13.25;;;;;22.86;55.25;100569.59;5071851;27;45417;-83
2021/06/22 06:21:30;;;;;;;;;11.50;10.50;;;;;22.85;55.48;100565.25;5067197;27;45296;-83
2021/06/22 06:23:57;;;;;;;;;14.50;13.00;;;;;22.86;55.16;100568.75;5072210;28;47359;-83
2021/06/22 06:26:24;;;;;;;;;13.75;13.75;;;;;22.85;55.32;100570.66;5077027;28;45621;-84
2021/06/22 06:28:55;;;;;;;;;17.25;13.25;;;;;22.84;55.32;100576.22;5074847;28;45926;-83
2021/06/22 06:31:23;;;;;;;;;18.00;14.25;;;;;22.86;55.32;100569.59;5071464;28;47602;-83
2021/06/22 06:33:49;;;;;;;;;16.75;15.75;;;;;22.87;55.22;100563.19;5071508;27;47271;-84
2021/06/22 06:36:15;;;;;;;;;12.50;12.50;;;;;22.86;55.33;100572.28;5072868;27;45374;-83
2021/06/22 06:38:41;;;;;;;;;14.25;14.25;;;;;22.85;55.31;100575.19;5065809;27;45469;-84
2021/06/22 06:41:09;;;;;;;;;19.25;13.25;;;;;22.89;55.42;100577.31;5074602;28;47667;-84
2021/06/22 06:43:34;;;;;;;;;16.50;15.75;;;;;22.92;55.35;100578.81;5074371;27;45446;-85
2021/06/22 06:46:00;;;;;;;;;17.00;14.25;;;;;23.02;55.16;100577.50;5072054;27;46498;-83
2021/06/22 06:48:26;;;;;;;;;14.50;13.75;;;;;23.05;55.10;100577.09;5074790;27;45379;-83
2021/06/22 06:50:52;;;;;;;;;16.25;15.25;;;;;23.08;55.28;100573.19;5078260;27;45595;-83
2021/06/22 06:53:26;;;;;;;;;18.25;15.00;;;;;23.11;54.63;100570.97;5093179;27;46116;-83
2021/06/22 06:55:52;;;;;;;;;16.75;16.00;;;;;23.10;54.64;100577.38;5072398;28;45827;-83
2021/06/22 06:58:17;;;;;;;;;21.75;18.25;;;;;23.07;54.56;100580.44;5074061;27;45468;-83
2021/06/22 07:00:43;;;;;;;;;21.50;16.50;;;;;23.08;54.45;100578.59;5087896;27;45474;-83
2021/06/22 07:03:09;;;;;;;;;18.50;17.75;;;;;23.08;54.42;100581.28;5073745;28;46832;-84
2021/06/22 07:05:34;;;;;;;;;19.50;18.25;;;;;23.13;54.44;100586.91;5075920;27;45568;-83
2021/06/22 07:08:10;;;;;;;;;22.00;20.00;;;;;23.17;54.48;100592.78;5068460;28;45457;-84
2021/06/22 07:10:41;;;;;;;;;20.75;17.50;;;;;23.17;54.21;100587.41;5074581;27;45623;-83
2021/06/22 07:13:31;;;;;;;;;19.25;17.50;;;;;23.18;54.15;100597.16;5074255;28;47769;-84
2021/06/22 07:15:56;;;;;;;;;19.00;17.75;;;;;23.19;54.20;100594.28;5071891;28;45326;-84
2021/06/22 07:18:22;;;;;;;;;18.75;16.50;;;;;23.28;54.03;100598.53;5066007;28;45441;-84
2021/06/22 07:20:48;;;;;;;;;20.75;15.50;;;;;23.33;54.04;100595.25;5088432;27;48299;-84
2021/06/22 07:23:13;;;;;;;;;18.75;17.50;;;;;23.40;53.98;100593.44;5074271;28;45428;-84
2021/06/22 07:25:39;;;;;;;;;16.25;13.75;;;;;23.45;54.34;100599.13;5065941;28;45825;-83
2021/06/22 07:28:05;;;;;;;;;21.00;17.25;;;;;23.48;53.99;100601.44;5064212;27;45609;-84
2021/06/22 07:30:30;;;;;;;;;22.25;16.50;;;;;23.44;53.40;100594.75;5071916;28;45731;-83
2021/06/22 07:32:57;;;;;;;;;23.75;17.50;;;;;23.43;53.66;100593.91;5076250;27;46517;-84
2021/06/22 07:35:23;;;;;;;;;21.75;17.25;;;;;23.34;53.66;100586.13;5072893;28;45529;-83
2021/06/22 07:37:49;;;;;;;;;21.50;18.00;;;;;23.28;53.77;100589.59;5085756;28;45416;-83
2021/06/22 07:40:16;;;;;;;;;16.75;16.25;;;;;23.24;53.82;100591.84;5075076;28;45616;-84
2021/06/22 07:42:42;;;;;;;;;20.00;18.00;;;;;23.18;54.18;100589.06;5097302;27;48566;-84
2021/06/22 07:45:09;;;;;;;;;23.50;18.00;;;;;23.14;54.34;100592.13;5080295;28;45393;-88
2021/06/22 07:47:39;;;;;;;;;20.50;16.75;;;;;23.11;55.13;100589.84;5087990;27;45622;-85
2021/06/22 07:50:08;;;;;;;;;19.00;17.50;;;;;23.10;55.15;100595.41;5089114;27;45342;-89
2021/06/22 07:52:33;;;;;;;;;18.75;17.50;;;;;23.09;55.23;100589.19;5090219;27;45425;-88
2021/06/22 07:54:59;;;;;;;;;20.00;15.75;;;;;23.16;54.94;100593.81;5080263;28;45585;-88
2021/06/22 07:57:24;;;;;;;;;17.25;15.25;;;;;23.22;53.95;100599.25;5080317;27;45329;-88
2021/06/22 07:59:50;;;;;;;;;18.00;17.25;;;;;23.22;54.36;100599.25;5076852;27;45248;-88
2021/06/22 08:02:15;;;;;;;;;16.50;14.00;;;;;23.19;54.61;100610.44;5080060;28;48361;-88
2021/06/22 08:04:41;;;;;;;;;16.75;16.25;;;;;23.08;54.91;100611.75;5069441;28;45314;-88
2021/06/22 08:07:06;;;;;;;;;25.00;21.25;;;;;23.03;55.09;100611.50;5075821;28;45606;-88
2021/06/22 08:09:32;;;;;;;;;23.00;21.25;;;;;22.98;55.43;100627.34;5070931;28;45567;-89
2021/06/22 08:11:58;;;;;;;;;28.00;23.00;;;;;22.84;55.34;100628.22;5075855;27;46907;-89
2021/06/22 08:14:23;;;;;;;;;23.00;22.00;;;;;22.72;56.21;100630.50;5086649;27;45396;-88
2021/06/22 08:16:49;;;;;;;;;35.00;28.25;;;;;22.64;57.57;100627.06;5079589;28;45477;-88
2021/06/22 08:19:14;;;;;;;;;26.50;22.50;;;;;22.52;57.84;100636.59;5074239;28;45741;-87
2021/06/22 08:21:40;;;;;;;;;28.75;25.25;;;;;22.45;58.20;100633.81;5081030;28;48076;-87
2021/06/22 08:24:06;;;;;;;;;28.25;22.50;;;;;22.41;58.70;100637.88;5074290;27;45484;-88
2021/06/22 08:26:32;;;;;;;;;28.75;24.00;;;;;22.43;58.94;100643.06;5076559;28;45389;-88
2021/06/22 08:28:58;;;;;;;;;26.25;21.50;;;;;22.50;58.40;100630.53;5092806;27;45970;-88
2021/06/22 08:31:23;;;;;;;;;30.75;24.50;;;;;22.59;58.08;100643.75;5078618;28;47228;-88
2021/06/22 08:33:49;;;;;;;;;24.25;23.75;;;;;22.65;58.15;100647.56;5079748;28;45420;-88
2021/06/22 08:36:14;;;;;;;;;27.25;23.00;;;;;22.71;58.16;100638.75;5079238;27;45348;-88
2021/06/22 08:38:41;;;;;;;;;21.00;20.75;;;;;22.79;57.54;100641.38;5081801;28;45440;-87
2021/06/22 08:41:08;;;;;;;;;29.00;28.25;;;;;22.98;57.22;100643.53;5095577;27;48367;-88
2021/06/22 08:43:34;;;;;;;;;25.75;21.50;;;;;23.19;56.72;100641.94;5078195;28;45835;-88
2021/06/22 08:46:04;;;;;;;;;28.00;25.00;;;;;23.32;56.41;100647.47;5094229;27;45493;-87
2021/06/22 08:48:30;;;;;;;;;20.00;18.50;;;;;23.34;55.46;100640.03;5094271;27;45532;-87
2021/06/22 08:50:56;;;;;;;;;29.25;23.75;;;;;23.41;55.54;100647.16;5072018;27;45329;-86
2021/06/22 08:53:22;;;;;;;;;24.75;19.25;;;;;23.60;55.35;100642.22;5073602;28;48909;-87
2021/06/22 08:55:48;;;;;;;;;26.00;24.50;;;;;23.89;54.32;100644.81;5099506;27;45480;-87
2021/06/22 08:58:18;;;;;;;;;23.75;22.50;;;;;24.20;53.34;100639.13;5098315;27;45349;-88
2021/06/22 09:00:49;;;;;;;;;27.75;26.00;;;;;24.49;52.68;100638.13;5077856;27;46216;-87
2021/06/22 09:03:22;;;;;;;;;22.00;19.75;;;;;24.88;52.47;100635.66;5075443;28;46194;-88
2021/06/22 09:05:50;;;;;;;;;24.50;22.25;;;;;25.61;51.93;100644.97;5074010;28;45456;-89
2021/06/22 09:08:24;;;;;;;;;27.50;20.75;;;;;25.83;50.18;100639.44;5077643;27;45432;-89
2021/06/22 09:10:53;;;;;;;;;22.75;20.25;;;;;25.58;49.75;100637.28;5080467;28;45723;-89
2021/06/22 09:13:23;;;;;;;;;20.75;17.25;;;;;25.38;49.38;100638.22;5079833;27;45767;-89
2021/06/22 09:15:52;;;;;;;;;18.50;17.50;;;;;25.24;50.27;100650.84;5084337;27;46850;-88
2021/06/22 09:18:29;;;;;;;;;21.25;19.50;;;;;25.13;49.58;100644.13;5079418;28;45639;-88
2021/06/22 09:21:04;;;;;;;;;18.50;15.75;;;;;25.21;49.70;100648.56;5082867;27;47441;-89
2021/06/22 09:23:35;;;;;;;;;20.25;18.00;;;;;25.50;50.07;100645.53;5077905;28;45904;-87
2021/06/22 09:26:10;;;;;;;;;29.00;23.00;;;;;27.02;50.02;100646.50;5075620;28;45420;-89
2021/06/22 09:28:35;;;;;;;;;23.25;19.00;;;;;30.18;46.14;100650.09;5090724;27;45519;-88
2021/06/22 09:31:03;;;;;;;;;23.75;18.25;;;;;30.91;42.33;100646.94;5074808;28;46367;-89
2021/06/22 09:34:01;;;;;;;;;25.00;19.75;;;;;30.82;40.50;100652.75;5078536;28;45236;-89
2021/06/22 09:36:30;;;;;;;;;22.25;20.00;;;;;30.54;39.51;100649.94;5071143;27;45355;-89
2021/06/22 09:39:07;;;;;;;;;19.50;17.75;;;;;31.31;39.10;100652.47;5072515;28;45576;-89
2021/06/22 09:41:41;;;;;;;;;24.00;21.25;;;;;31.60;37.90;100654.94;5075000;28;47293;-89
2021/06/22 09:44:09;;;;;;;;;20.25;19.25;;;;;31.76;37.48;100650.66;5081176;28;45663;-89
2021/06/22 09:46:49;;;;;;;;;20.50;19.00;;;;;32.07;35.62;100656.66;5083750;28;45286;-89
2021/06/22 09:49:14;;;;;;;;;20.50;19.25;;;;;32.13;35.68;100656.50;5075763;27;46965;-89
2021/06/22 09:54:19;;;;;;;;;21.25;17.75;;;;;31.70;35.47;100675.34;5074958;28;45451;-90
2021/06/22 09:56:58;;;;;;;;;22.25;20.25;;;;;31.05;34.60;100676.44;5071595;27;45499;-90
2021/06/22 09:59:25;;;;;;;;;22.25;21.00;;;;;30.18;36.02;100674.59;5076660;28;45896;-89
2021/06/22 10:01:54;;;;;;;;;22.50;19.75;;;;;29.44;37.35;100678.56;5081826;27;45529;-89
2021/06/22 10:04:24;;;;;;;;;21.25;20.50;;;;;28.88;38.20;100683.13;5081965;27;45768;-89
2021/06/22 10:06:59;;;;;;;;;23.00;19.50;;;;;28.27;39.66;100696.63;5080703;27;45484;-89
2021/06/22 10:09:26;;;;;;;;;22.00;17.50;;;;;27.71;39.93;100693.81;5089918;27;45499;-89
2021/06/22 10:11:59;;;;;;;;;18.50;17.25;;;;;27.43;40.75;100696.81;5079169;28;45558;-89
2021/06/22 10:14:36;;;;;;;;;18.50;17.75;;;;;27.29;41.18;100684.38;5073602;28;45721;-89
2021/06/22 10:17:07;;;;;;;;;23.50;21.00;;;;;27.05;41.27;100691.31;5078603;28;45949;-90
2021/06/22 10:19:35;;;;;;;;;17.50;16.50;;;;;26.85;42.05;100699.47;5069556;28;45477;-89
2021/06/22 10:22:05;;;;;;;;;19.25;15.25;;;;;26.59;42.27;100700.31;5076221;28;45742;-90
2021/06/22 10:24:34;;;;;;;;;17.25;14.25;;;;;26.28;42.94;100702.81;5073367;28;45536;-90
2021/06/22 10:27:01;;;;;;;;;21.25;17.00;;;;;26.07;43.55;100707.31;5079547;28;45458;-89
2021/06/22 10:29:28;;;;;;;;;16.75;15.75;;;;;25.87;44.03;100706.44;5076810;27;45500;-89
2021/06/22 10:31:56;;;;;;;;;15.00;13.50;;;;;25.63;43.92;100717.81;5095620;27;47204;-89
2021/06/22 10:34:25;;;;;;;;;16.25;15.25;;;;;25.35;45.31;100718.69;5080192;28;46078;-88
2021/06/22 10:36:58;;;;;;;;;14.00;11.50;;;;;25.12;45.63;100728.13;5078165;28;45456;-90
2021/06/22 10:39:39;;;;;;;;;19.50;14.00;;;;;24.82;46.32;100732.88;5074650;28;45501;-89
2021/06/22 10:42:10;;;;;;;;;17.75;15.00;;;;;24.50;51.01;100740.50;5076569;28;46350;-90
2021/06/22 10:44:38;;;;;;;;;17.75;16.75;;;;;24.07;56.52;100747.72;5075439;28;45528;-86
2021/06/22 10:47:26;;;;;;;;;18.00;14.75;;;;;23.86;52.56;100747.69;5080029;28;45496;-90
2021/06/22 10:50:00;;;;;;;;;18.25;15.50;;;;;23.70;53.43;100758.69;5074470;28;45467;-88
2021/06/22 10:53:06;;;;;;;;;15.00;14.00;;;;;23.59;53.58;100764.56;5072783;28;46183;-87
2021/06/22 10:55:33;;;;;;;;;14.00;14.00;;;;;23.45;53.66;100775.16;5081454;27;45511;-88
2021/06/22 10:58:11;;;;;;;;;18.00;16.25;;;;;23.34;53.93;100780.16;5072491;27;45463;-89
2021/06/22 11:00:42;;;;;;;;;14.50;13.50;;;;;23.24;54.28;100785.00;5077208;27;45516;-90
2021/06/22 11:03:27;;;;;;;;;15.50;13.25;;;;;23.08;55.87;100778.75;5079090;28;45593;-89
2021/06/22 11:06:13;;;;;;;;;12.25;12.00;;;;;22.93;56.55;100804.84;5081463;27;45452;-89
2021/06/22 11:08:42;;;;;;;;;15.50;10.50;;;;;22.84;56.65;100802.41;5067505;28;45418;-84
2021/06/22 11:11:08;;;;;;;;;16.25;12.75;;;;;22.84;56.54;100818.56;5073691;28;45178;-85
2021/06/22 11:13:40;;;;;;;;;12.75;12.25;;;;;22.75;56.83;100820.47;5081674;27;45607;-86
2021/06/22 11:16:21;;;;;;;;;12.50;9.00;;;;;22.70;57.13;100820.13;5080142;28;45298;-86
2021/06/22 11:18:56;;;;;;;;;14.50;8.75;;;;;22.66;57.57;100811.59;5077618;28;45265;-86
2021/06/22 11:21:36;;;;;;;;;13.75;11.00;;;;;22.56;59.06;100810.16;5078629;28;47118;-81
2021/06/22 11:24:24;;;;;;;;;9.50;7.75;;;;;22.48;58.70;100807.53;5077117;28;48032;-83